sensor_id;sensor_type;location;lat;lon;timestamp;P1;durP1;ratioP1;P2;durP2;ratioP2
9436;SDS011;4757;59.334;18.034;2023-05-10T00:02:07;8.30;;;4.60;;
9436;SDS011;4757;59.334;18.034;2023-05-10T00:04:34;6.93;;;5.00;;
9436;SDS011;4757;59.334;18.034;2023-05-10T00:07:02;5.43;;;4.50;;
9436;SDS011;4757;59.334;18.034;2023-05-10T00:09:29;8.70;;;4.60;;
9436;SDS011;4757;59.334;18.034;2023-05-10T00:11:56;7.70;;;4.80;;
9436;SDS011;4757;59.334;18.034;2023-05-10T00:14:24;11.07;;;5.07;;
9436;SDS011;4757;59.334;18.034;2023-05-10T00:16:51;5.87;;;4.90;;
9436;SDS011;4757;59.334;18.034;2023-05-10T00:19:18;7.33;;;5.23;;
9436;SDS011;4757;59.334;18.034;2023-05-10T00:21:45;6.97;;;5.00;;
9436;SDS011;4757;59.334;18.034;2023-05-10T00:24:12;8.77;;;5.00;;
9436;SDS011;4757;59.334;18.034;2023-05-10T00:26:39;7.53;;;5.13;;
9436;SDS011;4757;59.334;18.034;2023-05-10T00:29:08;8.50;;;5.73;;
9436;SDS011;4757;59.334;18.034;2023-05-10T00:31:35;7.33;;;5.13;;
9436;SDS011;4757;59.334;18.034;2023-05-10T00:34:04;6.83;;;5.43;;
9436;SDS011;4757;59.334;18.034;2023-05-10T00:36:30;6.67;;;5.03;;
9436;SDS011;4757;59.334;18.034;2023-05-10T00:38:58;6.93;;;4.87;;
9436;SDS011;4757;59.334;18.034;2023-05-10T00:41:25;8.57;;;5.07;;
9436;SDS011;4757;59.334;18.034;2023-05-10T00:43:52;7.47;;;4.20;;
9436;SDS011;4757;59.334;18.034;2023-05-10T00:46:19;10.23;;;4.87;;
9436;SDS011;4757;59.334;18.034;2023-05-10T00:48:46;7.50;;;5.00;;
9436;SDS011;4757;59.334;18.034;2023-05-10T00:51:13;9.50;;;4.70;;
9436;SDS011;4757;59.334;18.034;2023-05-10T00:53:40;9.90;;;5.00;;
9436;SDS011;4757;59.334;18.034;2023-05-10T00:56:07;8.57;;;5.03;;
9436;SDS011;4757;59.334;18.034;2023-05-10T00:58:34;7.70;;;5.43;;
9436;SDS011;4757;59.334;18.034;2023-05-10T01:01:01;11.17;;;5.63;;
9436;SDS011;4757;59.334;18.034;2023-05-10T01:03:29;7.30;;;6.10;;
9436;SDS011;4757;59.334;18.034;2023-05-10T01:05:57;6.03;;;5.10;;
9436;SDS011;4757;59.334;18.034;2023-05-10T01:08:24;7.83;;;6.00;;
9436;SDS011;4757;59.334;18.034;2023-05-10T01:10:52;6.83;;;4.70;;
9436;SDS011;4757;59.334;18.034;2023-05-10T01:13:38;7.07;;;5.03;;
9436;SDS011;4757;59.334;18.034;2023-05-10T01:16:08;5.73;;;4.77;;
9436;SDS011;4757;59.334;18.034;2023-05-10T01:18:39;8.27;;;5.17;;
9436;SDS011;4757;59.334;18.034;2023-05-10T01:35:14;8.97;;;4.63;;
9436;SDS011;4757;59.334;18.034;2023-05-10T01:40:59;5.50;;;4.60;;
9436;SDS011;4757;59.334;18.034;2023-05-10T01:43:57;6.73;;;4.83;;
9436;SDS011;4757;59.334;18.034;2023-05-10T01:46:33;5.77;;;4.77;;
9436;SDS011;4757;59.334;18.034;2023-05-10T01:49:05;11.67;;;6.27;;
9436;SDS011;4757;59.334;18.034;2023-05-10T01:51:47;5.07;;;4.57;;
9436;SDS011;4757;59.334;18.034;2023-05-10T01:54:19;6.77;;;5.57;;
9436;SDS011;4757;59.334;18.034;2023-05-10T01:56:48;9.90;;;5.57;;
9436;SDS011;4757;59.334;18.034;2023-05-10T01:59:21;8.57;;;5.93;;
9436;SDS011;4757;59.334;18.034;2023-05-10T02:01:54;6.20;;;4.80;;
9436;SDS011;4757;59.334;18.034;2023-05-10T02:04:25;9.80;;;5.67;;
9436;SDS011;4757;59.334;18.034;2023-05-10T02:06:53;12.07;;;6.50;;
9436;SDS011;4757;59.334;18.034;2023-05-10T02:09:21;12.80;;;5.93;;
9436;SDS011;4757;59.334;18.034;2023-05-10T02:11:56;8.37;;;5.97;;
9436;SDS011;4757;59.334;18.034;2023-05-10T02:14:26;8.37;;;5.50;;
9436;SDS011;4757;59.334;18.034;2023-05-10T02:16:53;8.33;;;5.13;;
9436;SDS011;4757;59.334;18.034;2023-05-10T02:19:23;5.87;;;5.17;;
9436;SDS011;4757;59.334;18.034;2023-05-10T02:21:51;8.67;;;6.30;;
9436;SDS011;4757;59.334;18.034;2023-05-10T02:24:18;7.57;;;5.67;;
9436;SDS011;4757;59.334;18.034;2023-05-10T02:26:47;9.30;;;5.87;;
9436;SDS011;4757;59.334;18.034;2023-05-10T02:29:17;9.73;;;5.40;;
9436;SDS011;4757;59.334;18.034;2023-05-10T02:31:45;12.63;;;6.10;;
9436;SDS011;4757;59.334;18.034;2023-05-10T02:34:13;9.73;;;5.63;;
9436;SDS011;4757;59.334;18.034;2023-05-10T02:36:41;8.43;;;6.03;;
9436;SDS011;4757;59.334;18.034;2023-05-10T02:39:09;6.23;;;5.63;;
9436;SDS011;4757;59.334;18.034;2023-05-10T02:41:40;7.47;;;5.77;;
9436;SDS011;4757;59.334;18.034;2023-05-10T02:44:08;14.83;;;6.83;;
9436;SDS011;4757;59.334;18.034;2023-05-10T02:46:36;8.70;;;6.20;;
9436;SDS011;4757;59.334;18.034;2023-05-10T02:49:04;7.93;;;5.70;;
9436;SDS011;4757;59.334;18.034;2023-05-10T02:51:31;12.37;;;6.30;;
9436;SDS011;4757;59.334;18.034;2023-05-10T02:54:26;14.87;;;7.23;;
9436;SDS011;4757;59.334;18.034;2023-05-10T02:56:58;14.53;;;6.97;;
9436;SDS011;4757;59.334;18.034;2023-05-10T02:59:26;11.40;;;6.13;;
9436;SDS011;4757;59.334;18.034;2023-05-10T03:01:53;9.53;;;5.60;;
9436;SDS011;4757;59.334;18.034;2023-05-10T03:04:21;8.83;;;5.97;;
9436;SDS011;4757;59.334;18.034;2023-05-10T03:06:47;9.97;;;6.20;;
9436;SDS011;4757;59.334;18.034;2023-05-10T03:09:14;6.97;;;5.33;;
9436;SDS011;4757;59.334;18.034;2023-05-10T03:15:04;9.17;;;5.93;;
9436;SDS011;4757;59.334;18.034;2023-05-10T03:20:21;10.23;;;6.63;;
9436;SDS011;4757;59.334;18.034;2023-05-10T03:22:55;11.20;;;6.00;;
9436;SDS011;4757;59.334;18.034;2023-05-10T03:25:31;10.70;;;5.50;;
9436;SDS011;4757;59.334;18.034;2023-05-10T03:27:59;9.03;;;5.67;;
9436;SDS011;4757;59.334;18.034;2023-05-10T03:30:28;10.07;;;6.03;;
9436;SDS011;4757;59.334;18.034;2023-05-10T03:32:56;6.90;;;6.20;;
9436;SDS011;4757;59.334;18.034;2023-05-10T03:35:23;8.90;;;6.37;;
9436;SDS011;4757;59.334;18.034;2023-05-10T03:37:50;8.93;;;6.00;;
9436;SDS011;4757;59.334;18.034;2023-05-10T03:40:17;12.03;;;5.83;;
9436;SDS011;4757;59.334;18.034;2023-05-10T03:42:44;9.87;;;5.67;;
9436;SDS011;4757;59.334;18.034;2023-05-10T03:45:11;8.57;;;5.57;;
9436;SDS011;4757;59.334;18.034;2023-05-10T03:47:38;8.47;;;5.80;;
9436;SDS011;4757;59.334;18.034;2023-05-10T03:50:06;9.33;;;5.80;;
9436;SDS011;4757;59.334;18.034;2023-05-10T03:52:33;7.80;;;5.70;;
9436;SDS011;4757;59.334;18.034;2023-05-10T03:55:00;10.13;;;6.30;;
9436;SDS011;4757;59.334;18.034;2023-05-10T03:57:29;10.83;;;5.87;;
9436;SDS011;4757;59.334;18.034;2023-05-10T03:59:56;12.70;;;6.07;;
9436;SDS011;4757;59.334;18.034;2023-05-10T04:02:22;12.57;;;6.17;;
9436;SDS011;4757;59.334;18.034;2023-05-10T04:04:50;12.73;;;6.57;;
9436;SDS011;4757;59.334;18.034;2023-05-10T04:07:17;6.67;;;4.93;;
9436;SDS011;4757;59.334;18.034;2023-05-10T04:09:44;11.27;;;6.07;;
9436;SDS011;4757;59.334;18.034;2023-05-10T04:12:11;11.77;;;5.47;;
9436;SDS011;4757;59.334;18.034;2023-05-10T04:14:38;9.77;;;5.40;;
9436;SDS011;4757;59.334;18.034;2023-05-10T04:17:05;11.17;;;5.20;;
9436;SDS011;4757;59.334;18.034;2023-05-10T04:19:32;8.30;;;5.70;;
9436;SDS011;4757;59.334;18.034;2023-05-10T04:21:59;10.60;;;5.53;;
9436;SDS011;4757;59.334;18.034;2023-05-10T04:24:28;11.27;;;5.17;;
9436;SDS011;4757;59.334;18.034;2023-05-10T04:26:55;5.83;;;4.87;;
9436;SDS011;4757;59.334;18.034;2023-05-10T04:29:23;10.20;;;5.43;;
9436;SDS011;4757;59.334;18.034;2023-05-10T04:31:50;11.50;;;5.43;;
9436;SDS011;4757;59.334;18.034;2023-05-10T04:34:17;8.63;;;4.83;;
9436;SDS011;4757;59.334;18.034;2023-05-10T04:36:44;13.90;;;5.60;;
9436;SDS011;4757;59.334;18.034;2023-05-10T04:39:11;9.67;;;5.30;;
9436;SDS011;4757;59.334;18.034;2023-05-10T04:41:40;6.93;;;5.37;;
9436;SDS011;4757;59.334;18.034;2023-05-10T04:44:07;10.53;;;4.90;;
9436;SDS011;4757;59.334;18.034;2023-05-10T04:46:34;8.03;;;4.83;;
9436;SDS011;4757;59.334;18.034;2023-05-10T04:49:01;9.20;;;4.97;;
9436;SDS011;4757;59.334;18.034;2023-05-10T04:51:28;5.80;;;4.50;;
9436;SDS011;4757;59.334;18.034;2023-05-10T04:53:55;9.13;;;4.93;;
9436;SDS011;4757;59.334;18.034;2023-05-10T04:56:31;9.77;;;4.70;;
9436;SDS011;4757;59.334;18.034;2023-05-10T04:58:59;13.47;;;5.20;;
9436;SDS011;4757;59.334;18.034;2023-05-10T05:01:26;8.33;;;4.93;;
9436;SDS011;4757;59.334;18.034;2023-05-10T05:03:53;6.63;;;4.30;;
9436;SDS011;4757;59.334;18.034;2023-05-10T05:06:20;10.97;;;5.27;;
9436;SDS011;4757;59.334;18.034;2023-05-10T05:08:47;4.63;;;3.80;;
9436;SDS011;4757;59.334;18.034;2023-05-10T05:11:16;8.07;;;4.37;;
9436;SDS011;4757;59.334;18.034;2023-05-10T05:13:43;10.07;;;5.53;;
9436;SDS011;4757;59.334;18.034;2023-05-10T05:16:10;7.30;;;4.57;;
9436;SDS011;4757;59.334;18.034;2023-05-10T05:18:38;5.60;;;4.37;;
9436;SDS011;4757;59.334;18.034;2023-05-10T05:21:14;7.90;;;4.33;;
9436;SDS011;4757;59.334;18.034;2023-05-10T05:23:42;6.67;;;4.33;;
9436;SDS011;4757;59.334;18.034;2023-05-10T05:26:09;8.50;;;4.13;;
9436;SDS011;4757;59.334;18.034;2023-05-10T05:28:37;8.83;;;4.30;;
9436;SDS011;4757;59.334;18.034;2023-05-10T05:31:05;7.77;;;4.07;;
9436;SDS011;4757;59.334;18.034;2023-05-10T05:33:32;12.40;;;5.60;;
9436;SDS011;4757;59.334;18.034;2023-05-10T05:36:03;7.53;;;4.27;;
9436;SDS011;4757;59.334;18.034;2023-05-10T05:38:31;6.40;;;4.47;;
9436;SDS011;4757;59.334;18.034;2023-05-10T05:40:58;11.47;;;4.03;;
9436;SDS011;4757;59.334;18.034;2023-05-10T05:43:25;4.43;;;3.53;;
9436;SDS011;4757;59.334;18.034;2023-05-10T05:45:53;8.83;;;4.57;;
9436;SDS011;4757;59.334;18.034;2023-05-10T05:48:20;6.17;;;4.17;;
9436;SDS011;4757;59.334;18.034;2023-05-10T05:50:47;5.70;;;4.10;;
9436;SDS011;4757;59.334;18.034;2023-05-10T05:53:15;5.90;;;3.97;;
9436;SDS011;4757;59.334;18.034;2023-05-10T05:55:55;4.57;;;3.27;;
9436;SDS011;4757;59.334;18.034;2023-05-10T05:58:24;8.67;;;3.23;;
9436;SDS011;4757;59.334;18.034;2023-05-10T06:00:52;7.07;;;3.70;;
9436;SDS011;4757;59.334;18.034;2023-05-10T06:03:20;9.30;;;3.73;;
9436;SDS011;4757;59.334;18.034;2023-05-10T06:05:47;11.20;;;5.87;;
9436;SDS011;4757;59.334;18.034;2023-05-10T06:08:14;5.50;;;4.03;;
9436;SDS011;4757;59.334;18.034;2023-05-10T06:10:41;5.23;;;3.20;;
9436;SDS011;4757;59.334;18.034;2023-05-10T06:13:08;8.43;;;4.33;;
9436;SDS011;4757;59.334;18.034;2023-05-10T06:15:36;6.63;;;3.40;;
9436;SDS011;4757;59.334;18.034;2023-05-10T06:18:03;3.70;;;3.20;;
9436;SDS011;4757;59.334;18.034;2023-05-10T06:20:30;10.93;;;4.33;;
9436;SDS011;4757;59.334;18.034;2023-05-10T06:22:57;4.23;;;3.17;;
9436;SDS011;4757;59.334;18.034;2023-05-10T06:25:25;6.90;;;3.57;;
9436;SDS011;4757;59.334;18.034;2023-05-10T06:27:52;3.53;;;3.13;;
9436;SDS011;4757;59.334;18.034;2023-05-10T06:30:24;4.67;;;3.27;;
9436;SDS011;4757;59.334;18.034;2023-05-10T06:32:55;7.87;;;3.30;;
9436;SDS011;4757;59.334;18.034;2023-05-10T06:35:22;8.93;;;3.83;;
9436;SDS011;4757;59.334;18.034;2023-05-10T06:37:50;5.57;;;3.63;;
9436;SDS011;4757;59.334;18.034;2023-05-10T06:40:18;9.93;;;4.13;;
9436;SDS011;4757;59.334;18.034;2023-05-10T06:42:45;5.27;;;3.70;;
9436;SDS011;4757;59.334;18.034;2023-05-10T06:45:13;4.07;;;3.37;;
9436;SDS011;4757;59.334;18.034;2023-05-10T06:47:41;6.60;;;3.90;;
9436;SDS011;4757;59.334;18.034;2023-05-10T06:50:09;7.20;;;3.37;;
9436;SDS011;4757;59.334;18.034;2023-05-10T06:52:40;11.13;;;4.47;;
9436;SDS011;4757;59.334;18.034;2023-05-10T06:55:07;8.60;;;4.07;;
9436;SDS011;4757;59.334;18.034;2023-05-10T06:57:35;6.13;;;3.33;;
9436;SDS011;4757;59.334;18.034;2023-05-10T07:00:02;7.73;;;3.67;;
9436;SDS011;4757;59.334;18.034;2023-05-10T07:02:38;5.90;;;3.60;;
9436;SDS011;4757;59.334;18.034;2023-05-10T07:05:05;11.33;;;4.57;;
9436;SDS011;4757;59.334;18.034;2023-05-10T07:07:33;4.93;;;3.57;;
9436;SDS011;4757;59.334;18.034;2023-05-10T07:10:03;7.40;;;3.83;;
9436;SDS011;4757;59.334;18.034;2023-05-10T07:12:31;8.33;;;4.60;;
9436;SDS011;4757;59.334;18.034;2023-05-10T07:14:58;9.30;;;3.50;;
9436;SDS011;4757;59.334;18.034;2023-05-10T07:17:25;6.87;;;3.40;;
9436;SDS011;4757;59.334;18.034;2023-05-10T07:19:52;5.60;;;3.00;;
9436;SDS011;4757;59.334;18.034;2023-05-10T07:22:19;7.20;;;4.00;;
9436;SDS011;4757;59.334;18.034;2023-05-10T07:24:46;5.50;;;4.00;;
9436;SDS011;4757;59.334;18.034;2023-05-10T07:27:14;11.03;;;3.83;;
9436;SDS011;4757;59.334;18.034;2023-05-10T07:29:41;6.40;;;3.03;;
9436;SDS011;4757;59.334;18.034;2023-05-10T07:32:08;6.20;;;3.87;;
9436;SDS011;4757;59.334;18.034;2023-05-10T07:34:35;10.87;;;3.90;;
9436;SDS011;4757;59.334;18.034;2023-05-10T07:37:02;8.17;;;3.63;;
9436;SDS011;4757;59.334;18.034;2023-05-10T07:39:32;5.83;;;4.23;;
9436;SDS011;4757;59.334;18.034;2023-05-10T07:41:59;12.40;;;3.80;;
9436;SDS011;4757;59.334;18.034;2023-05-10T07:44:26;8.10;;;3.30;;
9436;SDS011;4757;59.334;18.034;2023-05-10T07:46:53;13.87;;;7.87;;
9436;SDS011;4757;59.334;18.034;2023-05-10T07:49:20;6.73;;;3.90;;
9436;SDS011;4757;59.334;18.034;2023-05-10T07:51:47;4.43;;;3.43;;
9436;SDS011;4757;59.334;18.034;2023-05-10T07:54:17;5.77;;;3.60;;
9436;SDS011;4757;59.334;18.034;2023-05-10T07:56:44;4.90;;;3.03;;
9436;SDS011;4757;59.334;18.034;2023-05-10T07:59:16;4.80;;;3.17;;
9436;SDS011;4757;59.334;18.034;2023-05-10T08:01:46;8.53;;;3.50;;
9436;SDS011;4757;59.334;18.034;2023-05-10T08:04:13;3.40;;;3.10;;
9436;SDS011;4757;59.334;18.034;2023-05-10T08:06:40;8.17;;;3.87;;
9436;SDS011;4757;59.334;18.034;2023-05-10T08:09:07;5.03;;;2.47;;
9436;SDS011;4757;59.334;18.034;2023-05-10T08:11:35;4.30;;;3.73;;
9436;SDS011;4757;59.334;18.034;2023-05-10T08:14:02;7.47;;;3.73;;
9436;SDS011;4757;59.334;18.034;2023-05-10T08:16:29;3.63;;;3.20;;
9436;SDS011;4757;59.334;18.034;2023-05-10T08:18:56;5.17;;;3.43;;
9436;SDS011;4757;59.334;18.034;2023-05-10T08:21:24;4.40;;;3.20;;
9436;SDS011;4757;59.334;18.034;2023-05-10T08:23:51;9.33;;;3.90;;
9436;SDS011;4757;59.334;18.034;2023-05-10T08:26:18;14.77;;;5.20;;
9436;SDS011;4757;59.334;18.034;2023-05-10T08:28:45;10.23;;;4.00;;
9436;SDS011;4757;59.334;18.034;2023-05-10T08:31:12;5.17;;;2.83;;
9436;SDS011;4757;59.334;18.034;2023-05-10T08:33:39;31.90;;;5.60;;
9436;SDS011;4757;59.334;18.034;2023-05-10T08:36:09;8.77;;;3.97;;
9436;SDS011;4757;59.334;18.034;2023-05-10T08:38:37;6.87;;;4.30;;
9436;SDS011;4757;59.334;18.034;2023-05-10T08:41:04;9.27;;;3.60;;
9436;SDS011;4757;59.334;18.034;2023-05-10T08:43:32;4.60;;;3.00;;
9436;SDS011;4757;59.334;18.034;2023-05-10T08:46:02;3.70;;;3.40;;
9436;SDS011;4757;59.334;18.034;2023-05-10T08:48:31;6.47;;;3.80;;
9436;SDS011;4757;59.334;18.034;2023-05-10T08:51:01;5.60;;;3.70;;
9436;SDS011;4757;59.334;18.034;2023-05-10T08:53:30;8.37;;;4.47;;
9436;SDS011;4757;59.334;18.034;2023-05-10T08:56:00;5.47;;;3.53;;
9436;SDS011;4757;59.334;18.034;2023-05-10T08:58:28;9.17;;;3.77;;
9436;SDS011;4757;59.334;18.034;2023-05-10T09:00:55;6.03;;;3.28;;
9436;SDS011;4757;59.334;18.034;2023-05-10T09:03:24;4.45;;;2.50;;
9436;SDS011;4757;59.334;18.034;2023-05-10T09:05:51;5.97;;;2.80;;
9436;SDS011;4757;59.334;18.034;2023-05-10T09:08:18;3.37;;;3.07;;
9436;SDS011;4757;59.334;18.034;2023-05-10T09:10:46;4.93;;;3.40;;
9436;SDS011;4757;59.334;18.034;2023-05-10T09:13:15;6.20;;;3.13;;
9436;SDS011;4757;59.334;18.034;2023-05-10T09:15:43;7.50;;;3.47;;
9436;SDS011;4757;59.334;18.034;2023-05-10T09:18:12;6.53;;;5.63;;
9436;SDS011;4757;59.334;18.034;2023-05-10T09:20:40;6.70;;;3.13;;
9436;SDS011;4757;59.334;18.034;2023-05-10T09:23:07;4.87;;;3.03;;
9436;SDS011;4757;59.334;18.034;2023-05-10T09:25:35;5.77;;;3.30;;
9436;SDS011;4757;59.334;18.034;2023-05-10T09:28:05;12.43;;;3.70;;
9436;SDS011;4757;59.334;18.034;2023-05-10T09:30:35;5.27;;;3.07;;
9436;SDS011;4757;59.334;18.034;2023-05-10T09:33:02;3.53;;;2.97;;
9436;SDS011;4757;59.334;18.034;2023-05-10T09:35:30;8.07;;;3.37;;
9436;SDS011;4757;59.334;18.034;2023-05-10T09:38:05;4.43;;;3.07;;
9436;SDS011;4757;59.334;18.034;2023-05-10T09:40:32;4.77;;;3.47;;
9436;SDS011;4757;59.334;18.034;2023-05-10T09:43:00;8.63;;;3.50;;
9436;SDS011;4757;59.334;18.034;2023-05-10T09:45:33;6.47;;;3.10;;
9436;SDS011;4757;59.334;18.034;2023-05-10T09:48:04;6.60;;;3.22;;
9436;SDS011;4757;59.334;18.034;2023-05-10T09:50:33;6.10;;;3.30;;
9436;SDS011;4757;59.334;18.034;2023-05-10T09:53:01;5.28;;;2.65;;
9436;SDS011;4757;59.334;18.034;2023-05-10T09:55:40;4.95;;;3.00;;
9436;SDS011;4757;59.334;18.034;2023-05-10T09:58:11;3.70;;;3.40;;
9436;SDS011;4757;59.334;18.034;2023-05-10T10:00:42;2.55;;;2.35;;
9436;SDS011;4757;59.334;18.034;2023-05-10T10:03:18;6.28;;;3.50;;
9436;SDS011;4757;59.334;18.034;2023-05-10T10:05:47;6.10;;;3.83;;
9436;SDS011;4757;59.334;18.034;2023-05-10T10:08:15;7.20;;;3.20;;
9436;SDS011;4757;59.334;18.034;2023-05-10T10:10:43;11.40;;;3.63;;
9436;SDS011;4757;59.334;18.034;2023-05-10T10:13:13;6.70;;;3.28;;
9436;SDS011;4757;59.334;18.034;2023-05-10T10:15:41;4.57;;;3.15;;
9436;SDS011;4757;59.334;18.034;2023-05-10T10:18:13;4.50;;;2.50;;
9436;SDS011;4757;59.334;18.034;2023-05-10T10:20:44;4.60;;;3.50;;
9436;SDS011;4757;59.334;18.034;2023-05-10T10:23:11;3.03;;;2.73;;
9436;SDS011;4757;59.334;18.034;2023-05-10T10:25:42;3.83;;;3.43;;
9436;SDS011;4757;59.334;18.034;2023-05-10T10:31:01;5.40;;;3.77;;
9436;SDS011;4757;59.334;18.034;2023-05-10T10:33:44;5.47;;;2.73;;
9436;SDS011;4757;59.334;18.034;2023-05-10T10:36:21;3.57;;;3.23;;
9436;SDS011;4757;59.334;18.034;2023-05-10T10:41:33;6.50;;;3.27;;
9436;SDS011;4757;59.334;18.034;2023-05-10T10:49:27;3.63;;;3.33;;
9436;SDS011;4757;59.334;18.034;2023-05-10T10:55:13;6.30;;;3.73;;
9436;SDS011;4757;59.334;18.034;2023-05-10T10:57:44;6.77;;;3.47;;
9436;SDS011;4757;59.334;18.034;2023-05-10T11:00:19;10.57;;;4.20;;
9436;SDS011;4757;59.334;18.034;2023-05-10T11:02:48;4.70;;;2.97;;
9436;SDS011;4757;59.334;18.034;2023-05-10T11:13:30;8.32;;;3.35;;
9436;SDS011;4757;59.334;18.034;2023-05-10T11:16:15;8.10;;;3.30;;
9436;SDS011;4757;59.334;18.034;2023-05-10T11:19:03;4.43;;;3.00;;
9436;SDS011;4757;59.334;18.034;2023-05-10T11:21:33;7.07;;;3.13;;
9436;SDS011;4757;59.334;18.034;2023-05-10T11:24:32;7.40;;;3.03;;
9436;SDS011;4757;59.334;18.034;2023-05-10T11:26:59;7.50;;;3.57;;
9436;SDS011;4757;59.334;18.034;2023-05-10T11:29:27;7.60;;;3.40;;
9436;SDS011;4757;59.334;18.034;2023-05-10T11:31:56;3.63;;;3.23;;
9436;SDS011;4757;59.334;18.034;2023-05-10T11:36:56;14.87;;;3.83;;
9436;SDS011;4757;59.334;18.034;2023-05-10T11:39:27;7.37;;;2.73;;
9436;SDS011;4757;59.334;18.034;2023-05-10T11:41:58;6.90;;;3.37;;
9436;SDS011;4757;59.334;18.034;2023-05-10T11:44:34;5.97;;;3.07;;
9436;SDS011;4757;59.334;18.034;2023-05-10T11:47:02;3.97;;;2.50;;
9436;SDS011;4757;59.334;18.034;2023-05-10T11:49:29;7.83;;;3.70;;
9436;SDS011;4757;59.334;18.034;2023-05-10T11:52:06;4.97;;;3.37;;
9436;SDS011;4757;59.334;18.034;2023-05-10T11:54:33;4.33;;;3.73;;
9436;SDS011;4757;59.334;18.034;2023-05-10T11:57:03;4.40;;;2.57;;
9436;SDS011;4757;59.334;18.034;2023-05-10T11:59:30;6.37;;;3.13;;
9436;SDS011;4757;59.334;18.034;2023-05-10T12:01:57;5.57;;;5.00;;
9436;SDS011;4757;59.334;18.034;2023-05-10T12:04:27;12.53;;;4.67;;
9436;SDS011;4757;59.334;18.034;2023-05-10T12:06:55;6.60;;;3.50;;
9436;SDS011;4757;59.334;18.034;2023-05-10T12:09:23;4.23;;;3.17;;
9436;SDS011;4757;59.334;18.034;2023-05-10T12:12:08;4.20;;;3.27;;
9436;SDS011;4757;59.334;18.034;2023-05-10T12:14:36;8.63;;;3.40;;
9436;SDS011;4757;59.334;18.034;2023-05-10T12:17:04;5.23;;;3.20;;
9436;SDS011;4757;59.334;18.034;2023-05-10T12:19:37;5.27;;;3.60;;
9436;SDS011;4757;59.334;18.034;2023-05-10T12:22:05;4.90;;;3.30;;
9436;SDS011;4757;59.334;18.034;2023-05-10T12:24:36;4.93;;;3.10;;
9436;SDS011;4757;59.334;18.034;2023-05-10T12:27:04;5.43;;;3.33;;
9436;SDS011;4757;59.334;18.034;2023-05-10T12:29:34;5.27;;;3.53;;
9436;SDS011;4757;59.334;18.034;2023-05-10T12:32:01;5.77;;;2.83;;
9436;SDS011;4757;59.334;18.034;2023-05-10T12:34:32;6.13;;;3.10;;
9436;SDS011;4757;59.334;18.034;2023-05-10T12:37:04;5.47;;;3.03;;
9436;SDS011;4757;59.334;18.034;2023-05-10T12:39:41;10.67;;;3.93;;
9436;SDS011;4757;59.334;18.034;2023-05-10T12:42:09;4.47;;;2.37;;
9436;SDS011;4757;59.334;18.034;2023-05-10T12:44:36;7.07;;;3.10;;
9436;SDS011;4757;59.334;18.034;2023-05-10T12:47:03;5.73;;;3.10;;
9436;SDS011;4757;59.334;18.034;2023-05-10T12:49:31;7.13;;;2.37;;
9436;SDS011;4757;59.334;18.034;2023-05-10T12:51:58;6.73;;;3.43;;
9436;SDS011;4757;59.334;18.034;2023-05-10T12:54:25;2.63;;;2.43;;
9436;SDS011;4757;59.334;18.034;2023-05-10T12:56:52;7.50;;;3.43;;
9436;SDS011;4757;59.334;18.034;2023-05-10T12:59:19;3.97;;;2.90;;
9436;SDS011;4757;59.334;18.034;2023-05-10T13:01:46;6.23;;;3.33;;
9436;SDS011;4757;59.334;18.034;2023-05-10T13:04:13;8.30;;;3.13;;
9436;SDS011;4757;59.334;18.034;2023-05-10T13:06:40;3.90;;;2.90;;
9436;SDS011;4757;59.334;18.034;2023-05-10T13:09:07;4.10;;;2.43;;
9436;SDS011;4757;59.334;18.034;2023-05-10T13:11:35;6.17;;;2.67;;
9436;SDS011;4757;59.334;18.034;2023-05-10T13:14:02;4.73;;;3.00;;
9436;SDS011;4757;59.334;18.034;2023-05-10T13:16:29;5.40;;;2.50;;
9436;SDS011;4757;59.334;18.034;2023-05-10T13:18:57;8.57;;;3.00;;
9436;SDS011;4757;59.334;18.034;2023-05-10T13:21:27;3.87;;;2.60;;
9436;SDS011;4757;59.334;18.034;2023-05-10T13:23:54;3.13;;;2.57;;
9436;SDS011;4757;59.334;18.034;2023-05-10T13:26:21;3.80;;;2.77;;
9436;SDS011;4757;59.334;18.034;2023-05-10T13:28:49;4.47;;;2.80;;
9436;SDS011;4757;59.334;18.034;2023-05-10T13:31:18;3.20;;;2.57;;
9436;SDS011;4757;59.334;18.034;2023-05-10T13:33:45;4.50;;;2.43;;
9436;SDS011;4757;59.334;18.034;2023-05-10T13:36:12;2.93;;;2.67;;
9436;SDS011;4757;59.334;18.034;2023-05-10T13:38:39;3.97;;;2.50;;
9436;SDS011;4757;59.334;18.034;2023-05-10T13:41:06;3.10;;;2.40;;
9436;SDS011;4757;59.334;18.034;2023-05-10T13:43:33;7.87;;;2.60;;
9436;SDS011;4757;59.334;18.034;2023-05-10T13:46:00;5.83;;;2.70;;
9436;SDS011;4757;59.334;18.034;2023-05-10T13:48:28;5.67;;;3.00;;
9436;SDS011;4757;59.334;18.034;2023-05-10T13:50:55;6.73;;;2.63;;
9436;SDS011;4757;59.334;18.034;2023-05-10T13:53:22;6.27;;;2.97;;
9436;SDS011;4757;59.334;18.034;2023-05-10T13:55:49;4.83;;;2.43;;
9436;SDS011;4757;59.334;18.034;2023-05-10T13:58:16;2.83;;;2.53;;
9436;SDS011;4757;59.334;18.034;2023-05-10T14:00:43;3.67;;;2.57;;
9436;SDS011;4757;59.334;18.034;2023-05-10T14:03:10;2.80;;;2.60;;
9436;SDS011;4757;59.334;18.034;2023-05-10T14:05:40;2.83;;;2.60;;
9436;SDS011;4757;59.334;18.034;2023-05-10T14:08:07;3.10;;;2.80;;
9436;SDS011;4757;59.334;18.034;2023-05-10T14:10:38;52.03;;;8.90;;
9436;SDS011;4757;59.334;18.034;2023-05-10T14:13:05;5.43;;;2.93;;
9436;SDS011;4757;59.334;18.034;2023-05-10T14:15:32;4.33;;;2.93;;
9436;SDS011;4757;59.334;18.034;2023-05-10T14:18:03;2.57;;;2.13;;
9436;SDS011;4757;59.334;18.034;2023-05-10T14:20:30;5.33;;;3.13;;
9436;SDS011;4757;59.334;18.034;2023-05-10T14:22:58;5.13;;;2.60;;
9436;SDS011;4757;59.334;18.034;2023-05-10T14:25:25;3.57;;;2.33;;
9436;SDS011;4757;59.334;18.034;2023-05-10T14:27:52;5.70;;;2.77;;
9436;SDS011;4757;59.334;18.034;2023-05-10T14:30:20;3.20;;;2.43;;
9436;SDS011;4757;59.334;18.034;2023-05-10T14:32:48;2.73;;;2.17;;
9436;SDS011;4757;59.334;18.034;2023-05-10T14:35:15;6.47;;;2.37;;
9436;SDS011;4757;59.334;18.034;2023-05-10T14:37:45;2.13;;;2.00;;
9436;SDS011;4757;59.334;18.034;2023-05-10T14:40:12;2.60;;;2.40;;
9436;SDS011;4757;59.334;18.034;2023-05-10T14:42:41;6.20;;;2.40;;
9436;SDS011;4757;59.334;18.034;2023-05-10T14:45:09;3.57;;;2.30;;
9436;SDS011;4757;59.334;18.034;2023-05-10T14:47:37;6.17;;;2.93;;
9436;SDS011;4757;59.334;18.034;2023-05-10T14:50:04;3.43;;;2.57;;
9436;SDS011;4757;59.334;18.034;2023-05-10T14:52:32;4.23;;;2.37;;
9436;SDS011;4757;59.334;18.034;2023-05-10T14:54:59;7.50;;;2.90;;
9436;SDS011;4757;59.334;18.034;2023-05-10T14:57:27;7.03;;;2.50;;
9436;SDS011;4757;59.334;18.034;2023-05-10T14:59:58;3.77;;;2.30;;
9436;SDS011;4757;59.334;18.034;2023-05-10T15:02:25;5.83;;;2.40;;
9436;SDS011;4757;59.334;18.034;2023-05-10T15:04:53;7.43;;;2.43;;
9436;SDS011;4757;59.334;18.034;2023-05-10T15:07:20;2.83;;;2.40;;
9436;SDS011;4757;59.334;18.034;2023-05-10T15:09:47;2.70;;;2.40;;
9436;SDS011;4757;59.334;18.034;2023-05-10T15:12:14;4.37;;;2.17;;
9436;SDS011;4757;59.334;18.034;2023-05-10T15:14:41;2.53;;;2.00;;
9436;SDS011;4757;59.334;18.034;2023-05-10T15:17:08;2.07;;;1.87;;
9436;SDS011;4757;59.334;18.034;2023-05-10T15:19:37;2.77;;;1.90;;
9436;SDS011;4757;59.334;18.034;2023-05-10T15:22:04;4.60;;;2.40;;
9436;SDS011;4757;59.334;18.034;2023-05-10T15:24:32;11.60;;;2.97;;
9436;SDS011;4757;59.334;18.034;2023-05-10T15:26:59;2.77;;;2.43;;
9436;SDS011;4757;59.334;18.034;2023-05-10T15:29:26;2.73;;;2.47;;
9436;SDS011;4757;59.334;18.034;2023-05-10T15:31:53;6.77;;;2.53;;
9436;SDS011;4757;59.334;18.034;2023-05-10T15:34:20;5.30;;;2.60;;
9436;SDS011;4757;59.334;18.034;2023-05-10T15:36:48;2.17;;;2.00;;
9436;SDS011;4757;59.334;18.034;2023-05-10T15:39:15;2.33;;;2.20;;
9436;SDS011;4757;59.334;18.034;2023-05-10T15:41:42;3.33;;;2.33;;
9436;SDS011;4757;59.334;18.034;2023-05-10T15:44:08;4.07;;;1.90;;
9436;SDS011;4757;59.334;18.034;2023-05-10T15:46:36;4.60;;;2.37;;
9436;SDS011;4757;59.334;18.034;2023-05-10T15:49:04;2.63;;;2.30;;
9436;SDS011;4757;59.334;18.034;2023-05-10T15:51:32;13.83;;;9.60;;
9436;SDS011;4757;59.334;18.034;2023-05-10T15:54:02;8.83;;;2.77;;
9436;SDS011;4757;59.334;18.034;2023-05-10T15:56:33;5.47;;;2.73;;
9436;SDS011;4757;59.334;18.034;2023-05-10T15:59:00;5.40;;;2.67;;